createdAt,value
2017-10-05T00:02:21.283Z,2.90
2017-10-05T00:04:47.905Z,3.40
2017-10-05T00:07:14.539Z,3.87
2017-10-05T00:09:41.179Z,2.77
2017-10-05T00:12:07.822Z,3.77
2017-10-05T00:14:34.442Z,2.67
2017-10-05T00:17:01.052Z,3.40
2017-10-05T00:19:27.696Z,3.10
2017-10-05T00:21:54.300Z,2.80
2017-10-05T00:24:20.914Z,2.80
2017-10-05T00:26:47.562Z,3.20
2017-10-05T00:29:14.175Z,3.03
2017-10-05T00:31:40.828Z,3.10
2017-10-05T00:34:07.480Z,4.13
2017-10-05T00:36:34.115Z,2.97
2017-10-05T00:39:01.023Z,3.80
2017-10-05T00:41:27.648Z,3.40
2017-10-05T00:43:54.274Z,3.20
2017-10-05T00:46:20.914Z,2.97
2017-10-05T00:48:47.541Z,3.00
2017-10-05T00:51:14.155Z,2.60
2017-10-05T00:53:40.813Z,3.67
2017-10-05T00:56:07.427Z,2.80
2017-10-05T00:58:34.054Z,2.77
2017-10-05T01:01:00.659Z,4.97
2017-10-05T01:03:27.298Z,2.40
2017-10-05T01:05:53.918Z,3.53
2017-10-05T01:08:20.542Z,2.80
2017-10-05T01:10:47.202Z,3.43
2017-10-05T01:13:13.818Z,3.10
2017-10-05T01:15:40.477Z,4.50
2017-10-05T01:18:07.098Z,3.20
2017-10-05T01:20:33.727Z,4.10
2017-10-05T01:23:00.387Z,2.97
2017-10-05T01:25:27.007Z,3.40
2017-10-05T01:27:53.632Z,3.30
2017-10-05T01:30:20.274Z,3.27
2017-10-05T01:32:46.884Z,3.80
2017-10-05T01:35:13.511Z,3.63
2017-10-05T01:37:40.131Z,4.23
2017-10-05T01:40:06.768Z,3.37
2017-10-05T01:42:33.375Z,3.33
2017-10-05T01:45:00.016Z,2.70
2017-10-05T01:47:26.642Z,3.40
2017-10-05T01:49:53.258Z,2.93
2017-10-05T01:52:19.898Z,2.90
2017-10-05T01:54:46.525Z,3.90
2017-10-05T01:57:13.138Z,2.80
2017-10-05T01:59:39.771Z,2.53
2017-10-05T02:02:06.406Z,3.60
2017-10-05T02:04:33.017Z,3.30
2017-10-05T02:06:59.666Z,4.20
2017-10-05T02:09:26.292Z,3.00
2017-10-05T02:11:52.902Z,3.47
2017-10-05T02:14:19.530Z,5.53
2017-10-05T02:16:46.145Z,4.03
2017-10-05T02:19:12.769Z,3.73
2017-10-05T02:21:39.383Z,3.67
2017-10-05T02:24:05.986Z,3.40
2017-10-05T02:26:32.618Z,4.30
2017-10-05T02:28:59.286Z,4.23
2017-10-05T02:31:25.906Z,4.10
2017-10-05T02:33:52.552Z,4.23
2017-10-05T02:36:19.171Z,4.20
2017-10-05T02:38:45.811Z,3.53
2017-10-05T02:41:12.418Z,4.27
2017-10-05T02:43:39.062Z,4.37
2017-10-05T02:46:05.688Z,4.60
2017-10-05T02:48:32.310Z,4.77
2017-10-05T02:50:58.982Z,4.17
2017-10-05T02:53:25.615Z,4.30
2017-10-05T02:55:52.243Z,4.73
2017-10-05T02:58:18.883Z,5.10
2017-10-05T03:00:45.504Z,4.23
2017-10-05T03:03:12.166Z,3.83
2017-10-05T03:05:38.788Z,4.63
2017-10-05T03:08:05.394Z,3.73
2017-10-05T03:10:32.026Z,3.90
2017-10-05T03:12:58.635Z,4.10
2017-10-05T03:15:25.267Z,4.27
2017-10-05T03:17:51.921Z,4.57
2017-10-05T03:20:18.531Z,3.50
2017-10-05T03:22:45.158Z,4.13
2017-10-05T03:25:11.783Z,4.13
2017-10-05T03:27:38.403Z,3.80
2017-10-05T03:30:05.045Z,3.20
2017-10-05T03:32:31.658Z,4.83
2017-10-05T03:34:58.314Z,4.40
2017-10-05T03:37:24.987Z,4.37
2017-10-05T03:39:51.587Z,4.30
2017-10-05T03:42:18.247Z,4.40
2017-10-05T03:44:44.867Z,4.10
2017-10-05T03:47:11.511Z,3.73
2017-10-05T03:49:38.140Z,3.90
2017-10-05T03:52:04.790Z,4.50
2017-10-05T03:54:31.441Z,3.20
2017-10-05T03:56:58.059Z,3.90
2017-10-05T03:59:24.716Z,4.40
2017-10-05T04:01:51.323Z,4.83
2017-10-05T04:04:17.963Z,5.10
2017-10-05T04:06:44.592Z,4.67
2017-10-05T04:09:11.219Z,5.23
2017-10-05T04:11:37.871Z,6.73
2017-10-05T04:14:04.503Z,6.40
2017-10-05T04:16:31.133Z,7.30
2017-10-05T04:18:57.768Z,6.40
2017-10-05T04:21:24.390Z,7.40
2017-10-05T04:23:51.125Z,6.90
2017-10-05T04:26:17.735Z,8.30
2017-10-05T04:28:44.371Z,8.80
2017-10-05T04:31:10.994Z,8.50
2017-10-05T04:33:37.635Z,8.77
2017-10-05T04:36:04.250Z,9.53
2017-10-05T04:38:30.892Z,8.73
2017-10-05T04:40:57.532Z,9.07
2017-10-05T04:43:24.184Z,12.17
2017-10-05T04:45:50.835Z,10.80
2017-10-05T04:48:17.458Z,9.33
2017-10-05T04:50:44.106Z,12.13
2017-10-05T04:53:10.719Z,11.30
2017-10-05T04:55:37.334Z,9.97
2017-10-05T04:58:03.960Z,11.47
2017-10-05T05:00:30.594Z,10.60
2017-10-05T05:02:57.215Z,11.30
2017-10-05T05:05:23.854Z,12.10
2017-10-05T05:07:50.491Z,12.80
2017-10-05T05:10:17.160Z,11.57
2017-10-05T05:12:44.089Z,10.73
2017-10-05T05:15:10.720Z,11.60
2017-10-05T05:17:37.360Z,12.57
2017-10-05T05:20:03.995Z,11.03
2017-10-05T05:22:30.626Z,12.00
2017-10-05T05:24:57.287Z,14.23
2017-10-05T05:27:23.926Z,13.33
2017-10-05T05:29:50.548Z,14.00
2017-10-05T05:32:17.163Z,13.23
2017-10-05T05:34:43.808Z,14.10
2017-10-05T05:37:10.471Z,13.67
2017-10-05T05:39:37.094Z,13.37
2017-10-05T05:42:03.715Z,14.30
2017-10-05T05:44:30.386Z,15.53
2017-10-05T05:46:57.014Z,13.70
2017-10-05T05:49:23.651Z,14.60
2017-10-05T05:51:50.274Z,12.80
2017-10-05T05:54:16.890Z,11.20
2017-10-05T05:56:43.512Z,11.87
2017-10-05T05:59:10.147Z,14.07
2017-10-05T06:01:36.774Z,12.23
2017-10-05T06:04:03.422Z,12.80
2017-10-05T06:06:30.073Z,14.30
2017-10-05T06:08:56.694Z,13.73
2017-10-05T06:11:23.357Z,14.90
2017-10-05T06:13:49.970Z,16.00
2017-10-05T06:16:16.605Z,15.00
2017-10-05T06:18:43.219Z,15.23
2017-10-05T06:21:09.869Z,14.30
2017-10-05T06:23:36.485Z,17.30
2017-10-05T06:26:03.143Z,16.40
2017-10-05T06:28:29.769Z,17.47
2017-10-05T06:30:56.383Z,16.17
2017-10-05T06:33:23.020Z,18.57
2017-10-05T06:35:49.631Z,15.20
2017-10-05T06:38:16.270Z,15.40
2017-10-05T06:40:42.910Z,16.23
2017-10-05T06:43:09.547Z,15.33
2017-10-05T06:45:36.155Z,16.80
2017-10-05T06:48:02.797Z,15.10
2017-10-05T06:50:29.459Z,16.80
2017-10-05T06:52:56.083Z,18.70
2017-10-05T06:55:22.718Z,20.33
2017-10-05T06:57:49.356Z,21.30
2017-10-05T07:00:15.972Z,18.97
2017-10-05T07:02:42.619Z,19.07
2017-10-05T07:05:09.263Z,16.10
2017-10-05T07:07:35.902Z,19.57
2017-10-05T07:10:02.553Z,16.70
2017-10-05T07:12:29.180Z,19.70
2017-10-05T07:14:55.815Z,17.87
2017-10-05T07:17:22.489Z,16.80
2017-10-05T07:19:49.113Z,18.00
2017-10-05T07:22:15.741Z,18.37
2017-10-05T07:24:42.351Z,18.80
2017-10-05T07:27:09.006Z,18.63
2017-10-05T07:29:35.630Z,19.37
2017-10-05T07:32:02.247Z,16.70
2017-10-05T07:34:28.882Z,16.80
2017-10-05T07:36:55.512Z,18.57
2017-10-05T07:39:22.175Z,19.00
2017-10-05T07:41:48.802Z,17.93
2017-10-05T07:44:15.442Z,17.20
2017-10-05T07:46:42.078Z,16.80
2017-10-05T07:49:08.736Z,15.63
2017-10-05T07:51:35.368Z,15.87
2017-10-05T07:54:02.007Z,17.80
2017-10-05T07:56:28.654Z,16.73
2017-10-05T07:58:55.294Z,17.80
2017-10-05T08:01:21.926Z,16.30
2017-10-05T08:03:48.579Z,15.43
2017-10-05T08:06:15.192Z,17.77
2017-10-05T08:08:41.827Z,16.50
2017-10-05T08:11:08.452Z,14.33
2017-10-05T08:13:35.078Z,15.07
2017-10-05T08:16:01.723Z,13.97
2017-10-05T08:18:28.352Z,13.87
2017-10-05T08:20:54.987Z,14.53
2017-10-05T08:23:21.603Z,15.50
2017-10-05T08:25:48.235Z,14.70
2017-10-05T08:28:14.907Z,14.07
2017-10-05T08:30:41.527Z,12.87
2017-10-05T08:33:08.147Z,14.60
2017-10-05T08:35:34.784Z,11.90
2017-10-05T08:38:01.457Z,15.20
2017-10-05T08:40:28.083Z,12.73
2017-10-05T08:45:52.497Z,10.90
2017-10-05T08:48:19.155Z,11.37
2017-10-05T08:50:45.802Z,10.83
2017-10-05T08:53:12.426Z,11.90
2017-10-05T08:55:39.046Z,11.20
2017-10-05T08:58:05.681Z,10.40
2017-10-05T09:00:32.285Z,8.23
2017-10-05T09:02:58.920Z,9.17
2017-10-05T09:05:25.530Z,7.37
2017-10-05T09:07:52.166Z,8.50
2017-10-05T09:10:18.791Z,8.50
2017-10-05T09:12:45.475Z,8.67
2017-10-05T09:15:12.088Z,7.20
2017-10-05T09:17:38.749Z,8.23
2017-10-05T09:20:05.407Z,7.70
2017-10-05T09:22:32.041Z,7.93
2017-10-05T09:24:58.671Z,6.20
2017-10-05T09:27:25.285Z,4.93
2017-10-05T09:29:51.919Z,5.17
2017-10-05T09:32:18.559Z,4.37
2017-10-05T09:34:45.167Z,5.27
2017-10-05T09:37:11.795Z,4.33
2017-10-05T09:39:38.420Z,3.70
2017-10-05T09:42:05.082Z,3.60
2017-10-05T09:44:31.741Z,4.00
2017-10-05T09:46:58.385Z,4.37
2017-10-05T09:49:25.115Z,5.27
2017-10-05T09:51:51.756Z,3.40
2017-10-05T09:54:18.387Z,4.80
2017-10-05T09:56:45.038Z,3.30
2017-10-05T09:59:11.679Z,3.60
2017-10-05T10:01:38.299Z,4.47
2017-10-05T10:04:05.018Z,4.20
2017-10-05T10:06:31.635Z,4.53
2017-10-05T10:08:58.295Z,4.47
2017-10-05T10:11:24.923Z,4.10
2017-10-05T10:13:51.570Z,13.67
2017-10-05T10:16:18.291Z,11.30
2017-10-05T10:18:44.924Z,8.20
2017-10-05T10:21:11.559Z,9.27
2017-10-05T10:23:38.183Z,6.90
2017-10-05T10:26:04.819Z,8.80
2017-10-05T10:28:31.454Z,8.57
2017-10-05T10:30:58.103Z,12.07
2017-10-05T10:33:24.743Z,12.27
2017-10-05T10:35:51.368Z,12.37
2017-10-05T10:38:17.996Z,9.17
2017-10-05T10:40:44.643Z,9.57
2017-10-05T10:43:11.274Z,7.33
2017-10-05T10:45:37.908Z,6.50
2017-10-05T10:48:04.546Z,4.53
2017-10-05T10:50:31.191Z,6.00
2017-10-05T10:52:57.805Z,4.57
2017-10-05T10:55:24.436Z,3.60
2017-10-05T10:57:51.090Z,5.70
2017-10-05T11:00:17.723Z,4.47
2017-10-05T11:02:44.379Z,2.93
2017-10-05T11:05:11.036Z,2.87
2017-10-05T11:07:37.667Z,3.17
2017-10-05T11:10:04.278Z,4.50
2017-10-05T11:12:30.943Z,3.60
2017-10-05T11:14:57.531Z,2.27
2017-10-05T11:17:24.143Z,5.00
2017-10-05T11:19:50.817Z,3.63
2017-10-05T11:22:17.459Z,3.90
2017-10-05T11:24:44.108Z,3.37
2017-10-05T11:27:10.734Z,5.90
2017-10-05T11:29:37.354Z,3.60
2017-10-05T11:32:03.991Z,3.33
2017-10-05T11:34:30.602Z,2.80
2017-10-05T11:36:57.239Z,1.93
2017-10-05T11:39:23.900Z,1.93
2017-10-05T11:41:50.527Z,2.00
2017-10-05T11:44:17.151Z,4.63
2017-10-05T11:46:43.788Z,2.07
2017-10-05T11:49:10.489Z,2.07
2017-10-05T11:51:37.133Z,3.30
2017-10-05T11:54:03.777Z,1.07
2017-10-05T11:56:30.430Z,1.70
2017-10-05T11:58:57.054Z,0.90
2017-10-05T12:01:23.719Z,1.20
2017-10-05T12:03:50.359Z,2.20
2017-10-05T12:06:16.987Z,1.40
2017-10-05T12:08:43.624Z,1.83
2017-10-05T12:11:10.235Z,1.90
2017-10-05T12:13:36.870Z,2.20
2017-10-05T12:16:03.528Z,1.93
2017-10-05T12:18:30.162Z,1.80
2017-10-05T12:20:57.650Z,2.53
2017-10-05T12:23:24.325Z,1.30
2017-10-05T12:25:50.979Z,3.30
2017-10-05T12:28:17.680Z,1.93
2017-10-05T12:30:44.383Z,2.30
2017-10-05T12:33:10.999Z,2.17
2017-10-05T12:35:37.944Z,1.50
2017-10-05T12:38:04.570Z,1.80
2017-10-05T12:40:31.194Z,1.60
2017-10-05T12:42:57.837Z,1.60
2017-10-05T12:45:24.478Z,2.97
2017-10-05T12:47:51.463Z,2.30
2017-10-05T12:50:18.129Z,2.00
2017-10-05T12:52:44.769Z,2.53
2017-10-05T12:55:11.388Z,1.40
2017-10-05T12:57:38.018Z,1.70
2017-10-05T13:00:04.659Z,1.87
2017-10-05T13:02:31.637Z,1.53
2017-10-05T13:04:58.272Z,2.00
2017-10-05T13:07:24.889Z,1.53
2017-10-05T13:09:51.535Z,1.87
2017-10-05T13:12:18.199Z,1.30
2017-10-05T13:14:44.831Z,2.00
2017-10-05T13:17:11.476Z,1.20
2017-10-05T13:19:38.114Z,1.47
2017-10-05T13:22:04.746Z,2.40
2017-10-05T13:24:31.372Z,1.53
2017-10-05T13:26:58.032Z,1.43
2017-10-05T13:29:24.639Z,0.87
2017-10-05T13:31:51.279Z,2.30
2017-10-05T13:34:18.028Z,2.00
2017-10-05T13:36:44.832Z,1.20
2017-10-05T13:39:11.455Z,1.27
2017-10-05T13:41:38.100Z,2.30
2017-10-05T13:44:04.742Z,1.30
2017-10-05T13:46:31.367Z,2.33
2017-10-05T13:48:58.006Z,1.97
2017-10-05T13:51:24.627Z,1.77
2017-10-05T13:53:51.237Z,4.23
2017-10-05T13:56:17.873Z,2.73
2017-10-05T13:58:44.478Z,2.13
2017-10-05T14:01:11.140Z,1.43
2017-10-05T14:03:37.789Z,1.67
2017-10-05T14:06:04.431Z,1.40
2017-10-05T14:08:31.082Z,2.50
2017-10-05T14:10:57.703Z,1.93
2017-10-05T14:13:24.380Z,1.67
2017-10-05T14:15:51.027Z,1.80
2017-10-05T14:18:17.664Z,2.40
2017-10-05T14:20:44.282Z,1.83
2017-10-05T14:23:10.919Z,3.80
2017-10-05T14:25:37.589Z,8.30
2017-10-05T14:28:04.231Z,4.20
2017-10-05T14:30:30.863Z,4.27
2017-10-05T14:32:57.468Z,3.03
2017-10-05T14:35:24.080Z,3.27
2017-10-05T14:37:50.751Z,3.90
2017-10-05T14:40:17.385Z,4.67
2017-10-05T14:42:44.005Z,2.43
2017-10-05T14:45:11.027Z,1.50
2017-10-05T14:47:37.673Z,1.60
2017-10-05T14:50:04.332Z,1.73
2017-10-05T14:52:30.948Z,1.80
2017-10-05T14:54:57.586Z,2.03
2017-10-05T14:57:24.221Z,2.70
2017-10-05T14:59:50.844Z,3.30
2017-10-05T15:02:17.475Z,3.10
2017-10-05T15:04:44.091Z,2.90
2017-10-05T15:07:10.736Z,5.27
2017-10-05T15:09:37.394Z,3.43
2017-10-05T15:12:04.007Z,2.70
2017-10-05T15:14:30.660Z,4.73
2017-10-05T15:16:57.301Z,4.70
2017-10-05T15:19:23.937Z,6.10
2017-10-05T15:21:50.574Z,6.90
2017-10-05T15:24:17.193Z,4.50
2017-10-05T15:26:43.826Z,4.30
2017-10-05T15:29:10.443Z,5.50
2017-10-05T15:31:37.074Z,8.03
2017-10-05T15:34:03.708Z,6.47
2017-10-05T15:36:30.356Z,4.20
2017-10-05T15:38:57.332Z,3.30
2017-10-05T15:41:24.011Z,4.37
2017-10-05T15:43:50.627Z,3.53
2017-10-05T15:46:17.266Z,3.97
2017-10-05T15:48:43.944Z,5.00
2017-10-05T15:51:10.603Z,5.10
2017-10-05T15:53:37.252Z,3.93
2017-10-05T15:56:03.867Z,3.13
2017-10-05T15:58:30.512Z,2.77
2017-10-05T16:00:57.159Z,2.37
2017-10-05T16:03:23.797Z,3.40
2017-10-05T16:05:50.420Z,3.60
2017-10-05T16:08:17.051Z,2.40
2017-10-05T16:10:43.675Z,3.23
2017-10-05T16:13:10.321Z,2.77
2017-10-05T16:15:36.943Z,2.60
2017-10-05T16:18:03.585Z,2.97
2017-10-05T16:20:30.194Z,2.70
2017-10-05T16:22:56.823Z,2.47
2017-10-05T16:25:23.456Z,2.90
2017-10-05T16:27:50.071Z,2.77
2017-10-05T16:30:16.718Z,3.23
2017-10-05T16:32:43.358Z,3.63
2017-10-05T16:35:09.998Z,3.43
2017-10-05T16:37:36.650Z,4.10
2017-10-05T16:40:03.314Z,3.50
2017-10-05T16:42:29.930Z,2.93
2017-10-05T16:44:56.550Z,6.73
2017-10-05T16:47:23.198Z,5.10
2017-10-05T16:49:49.835Z,4.87
2017-10-05T16:52:16.439Z,5.10
2017-10-05T16:54:43.075Z,2.87
2017-10-05T16:57:09.719Z,2.83
2017-10-05T16:59:36.331Z,3.27
2017-10-05T17:02:02.975Z,4.20
2017-10-05T17:04:29.663Z,4.80
2017-10-05T17:06:56.343Z,5.40
2017-10-05T17:09:22.982Z,5.90
2017-10-05T17:11:49.607Z,8.03
2017-10-05T17:14:16.237Z,6.47
2017-10-05T17:16:42.855Z,8.43
2017-10-05T17:19:09.464Z,4.53
2017-10-05T17:21:36.107Z,6.07
2017-10-05T17:24:02.722Z,8.20
2017-10-05T17:26:29.347Z,8.13
2017-10-05T17:28:55.997Z,9.33
2017-10-05T17:31:22.592Z,9.63
2017-10-05T17:33:49.252Z,7.17
2017-10-05T17:36:15.918Z,6.60
2017-10-05T17:38:42.522Z,5.03
2017-10-05T17:41:09.171Z,5.07
2017-10-05T17:43:35.811Z,6.10
2017-10-05T17:46:02.475Z,4.73
2017-10-05T17:48:29.120Z,5.30
2017-10-05T17:50:55.750Z,7.67
2017-10-05T17:53:22.398Z,9.27
2017-10-05T17:55:49.043Z,8.80
2017-10-05T17:58:15.683Z,9.37
2017-10-05T18:00:42.349Z,12.20
2017-10-05T18:03:10.095Z,11.70
2017-10-05T18:05:36.748Z,11.90
2017-10-05T18:08:03.399Z,11.27
2017-10-05T18:10:30.058Z,11.47
2017-10-05T18:12:56.696Z,10.47
2017-10-05T18:15:23.358Z,9.47
2017-10-05T18:17:50.132Z,9.67
2017-10-05T18:20:16.760Z,10.27
2017-10-05T18:22:43.390Z,7.00
2017-10-05T18:25:10.036Z,5.40
2017-10-05T18:27:36.681Z,6.93
2017-10-05T18:30:03.332Z,7.93
2017-10-05T18:32:29.963Z,7.53
2017-10-05T18:34:56.579Z,6.17
2017-10-05T18:37:23.251Z,4.60
2017-10-05T18:39:50.849Z,7.60
2017-10-05T18:42:17.491Z,6.23
2017-10-05T18:44:44.100Z,5.20
2017-10-05T18:47:10.769Z,5.73
2017-10-05T18:49:37.433Z,7.37
2017-10-05T18:52:04.082Z,6.33
2017-10-05T18:54:30.709Z,8.00
2017-10-05T18:56:57.376Z,5.80
2017-10-05T18:59:24.012Z,5.43
2017-10-05T19:01:50.636Z,6.20
2017-10-05T19:04:17.271Z,6.73
2017-10-05T19:06:43.920Z,5.23
2017-10-05T19:09:10.584Z,4.33
2017-10-05T19:11:37.223Z,3.13
2017-10-05T19:14:03.864Z,4.20
2017-10-05T19:16:30.521Z,5.33
2017-10-05T19:18:57.187Z,4.70
2017-10-05T19:21:23.801Z,5.00
2017-10-05T19:23:50.468Z,3.37
2017-10-05T19:26:17.098Z,3.37
2017-10-05T19:28:43.721Z,3.63
2017-10-05T19:31:10.405Z,3.20
2017-10-05T19:33:37.040Z,2.90
2017-10-05T19:36:03.701Z,3.00
2017-10-05T19:38:30.350Z,3.20
2017-10-05T19:40:56.977Z,3.53
2017-10-05T19:43:23.644Z,3.70
2017-10-05T19:45:50.264Z,3.37
2017-10-05T19:48:16.900Z,3.13
2017-10-05T19:50:43.541Z,2.90
2017-10-05T19:53:10.153Z,4.00
2017-10-05T19:55:36.809Z,3.10
2017-10-05T19:58:03.432Z,3.40
2017-10-05T20:00:30.057Z,3.23
2017-10-05T20:02:56.724Z,4.20
2017-10-05T20:05:23.360Z,4.90
2017-10-05T20:07:50.038Z,4.43
2017-10-05T20:10:16.656Z,6.30
2017-10-05T20:12:43.333Z,6.17
2017-10-05T20:15:27.556Z,7.00
2017-10-05T20:17:57.830Z,4.30
2017-10-05T20:20:38.236Z,4.80
2017-10-05T20:23:19.751Z,3.10
2017-10-05T20:26:03.136Z,2.90
2017-10-05T20:28:35.661Z,4.53
2017-10-05T20:31:18.159Z,3.30
2017-10-05T20:33:44.828Z,3.30
2017-10-05T20:36:11.468Z,4.07
2017-10-05T20:38:38.093Z,3.80
2017-10-05T20:41:04.743Z,3.00
2017-10-05T20:43:31.379Z,3.57
2017-10-05T20:45:58.023Z,4.10
2017-10-05T20:48:24.662Z,2.87
2017-10-05T20:50:51.312Z,2.43
2017-10-05T20:53:17.958Z,3.80
2017-10-05T20:55:44.588Z,3.13
2017-10-05T20:58:11.239Z,3.47
2017-10-05T21:00:37.900Z,3.67
2017-10-05T21:03:04.545Z,3.13
2017-10-05T21:05:31.196Z,2.77
2017-10-05T21:07:57.812Z,3.23
2017-10-05T21:10:24.451Z,3.27
2017-10-05T21:12:51.944Z,3.47
2017-10-05T21:15:18.596Z,3.13
2017-10-05T21:17:45.209Z,3.23
2017-10-05T21:20:11.868Z,4.50
2017-10-05T21:22:38.529Z,3.20
2017-10-05T21:25:05.180Z,2.70
2017-10-05T21:27:31.837Z,2.10
2017-10-05T21:29:58.440Z,3.07
2017-10-05T21:32:25.077Z,3.43
2017-10-05T21:34:51.717Z,3.43
2017-10-05T21:37:18.333Z,3.20
2017-10-05T21:39:44.996Z,2.63
2017-10-05T21:42:11.609Z,3.80
2017-10-05T21:44:38.251Z,3.20
2017-10-05T21:47:04.883Z,2.63
2017-10-05T21:49:31.530Z,2.97
2017-10-05T21:51:58.148Z,3.50
2017-10-05T21:54:24.810Z,3.03
2017-10-05T21:56:51.432Z,2.67
2017-10-05T21:59:18.064Z,3.70
2017-10-05T22:01:44.691Z,3.10
2017-10-05T22:04:11.364Z,2.57
2017-10-05T22:06:37.985Z,2.33
2017-10-05T22:09:04.625Z,1.97
2017-10-05T22:11:31.271Z,2.50
2017-10-05T22:13:57.870Z,1.70
2017-10-05T22:16:24.487Z,2.00
2017-10-05T22:18:51.129Z,2.67
2017-10-05T22:21:17.758Z,2.20
2017-10-05T22:23:44.383Z,2.53
2017-10-05T22:26:11.011Z,2.23
2017-10-05T22:28:37.626Z,2.27
2017-10-05T22:31:04.250Z,2.63
2017-10-05T22:33:30.889Z,2.20
2017-10-05T22:35:57.498Z,3.10
2017-10-05T22:38:24.142Z,3.13
2017-10-05T22:40:50.759Z,4.00
2017-10-05T22:43:17.386Z,2.67
2017-10-05T22:45:44.020Z,2.10
2017-10-05T22:48:10.630Z,3.40
2017-10-05T22:50:37.263Z,2.60
2017-10-05T22:53:03.894Z,2.83
2017-10-05T22:55:30.538Z,2.53
2017-10-05T22:57:57.162Z,2.03
2017-10-05T23:00:23.810Z,2.13
2017-10-05T23:02:50.462Z,2.53
2017-10-05T23:05:17.100Z,3.20
2017-10-05T23:07:43.724Z,2.57
2017-10-05T23:10:10.354Z,2.63
2017-10-05T23:12:36.994Z,3.30
2017-10-05T23:15:03.606Z,2.73
2017-10-05T23:17:30.228Z,2.93
2017-10-05T23:19:56.859Z,2.40
2017-10-05T23:22:23.482Z,2.13
2017-10-05T23:24:50.087Z,2.60
2017-10-05T23:27:16.749Z,1.90
2017-10-05T23:29:43.370Z,2.70
2017-10-05T23:32:10.008Z,2.20
2017-10-05T23:34:36.613Z,3.30
2017-10-05T23:37:03.250Z,2.77
2017-10-05T23:39:29.860Z,2.17
2017-10-05T23:41:56.485Z,2.50
2017-10-05T23:44:23.129Z,3.40
2017-10-05T23:46:49.727Z,3.40
2017-10-05T23:49:16.355Z,2.77
2017-10-05T23:51:42.999Z,2.30
2017-10-05T23:54:09.608Z,2.20
2017-10-05T23:56:36.232Z,1.93
2017-10-05T23:59:02.842Z,3.30
